Conception, Missouri
Current Conditions -  °F | °C
As of 12:53 PM on Friday 21 Nov 2014 (Local Time) from KSTJ Reporting Station
Overcast Overcast  
Wind Chill: 31°   Ceiling: 1600
Heat Index: 39°   Visibility: 10mi
Dew Point: 28°   Wind: 13mph
Humidity: 65%   Direction: 140°SE
Pressure: 30.16"   Gusts: NA
Location:  40.24°N, 94.69°W
Report Text: KSTJ 211853Z 14011KT 10SM OVC016 04/M02 A3016 RMK AO2 SLP223 T00391022
Loading
Personal Weather Stations






























Interactive Weather Map New forecast layout! Learn more

10-Day Weather Forecast

Advertisements
Track Severe Weather on mobile